createdAt,value
2022-09-26T00:00:13.092Z,1007.71
2022-09-26T00:01:13.317Z,1007.65
2022-09-26T00:02:13.473Z,1007.66
2022-09-26T00:03:13.613Z,1007.63
2022-09-26T00:04:13.774Z,1007.63
2022-09-26T00:05:13.944Z,1007.59
2022-09-26T00:06:14.114Z,1007.59
2022-09-26T00:07:14.282Z,1007.61
2022-09-26T00:08:14.434Z,1007.63
2022-09-26T00:09:14.816Z,1007.62
2022-09-26T00:10:14.815Z,1007.59
2022-09-26T00:11:15.007Z,1007.61
2022-09-26T00:12:15.135Z,1007.58
2022-09-26T00:13:15.297Z,1007.56
2022-09-26T00:14:15.479Z,1007.54
2022-09-26T00:15:15.626Z,1007.58
2022-09-26T00:16:15.873Z,1007.60
2022-09-26T00:17:16.011Z,1007.62
2022-09-26T00:18:16.175Z,1007.57
2022-09-26T00:19:16.345Z,1007.59
2022-09-26T00:20:16.505Z,1007.57
2022-09-26T00:21:16.689Z,1007.60
2022-09-26T00:22:16.848Z,1007.57
2022-09-26T00:23:17.009Z,1007.59
2022-09-26T00:24:17.182Z,1007.59
2022-09-26T00:25:17.340Z,1007.61
2022-09-26T00:26:17.530Z,1007.60
2022-09-26T00:27:17.699Z,1007.61
2022-09-26T00:28:17.855Z,1007.61
2022-09-26T00:29:18.042Z,1007.63
2022-09-26T00:30:18.478Z,1007.63
2022-09-26T00:31:18.468Z,1007.64
2022-09-26T00:32:18.581Z,1007.64
2022-09-26T00:33:18.731Z,1007.66
2022-09-26T00:34:18.944Z,1007.64
2022-09-26T00:35:19.096Z,1007.65
2022-09-26T00:36:19.282Z,1007.66
2022-09-26T00:37:19.472Z,1007.61
2022-09-26T00:38:19.624Z,1007.65
2022-09-26T00:39:19.805Z,1007.65
2022-09-26T00:40:20.005Z,1007.60
2022-09-26T00:41:20.147Z,1007.62
2022-09-26T00:42:20.306Z,1007.56
2022-09-26T00:43:20.495Z,1007.59
2022-09-26T00:44:20.622Z,1007.58
2022-09-26T00:45:20.777Z,1007.63
2022-09-26T00:46:20.999Z,1007.58
2022-09-26T00:47:21.117Z,1007.57
2022-09-26T00:48:21.329Z,1007.54
2022-09-26T00:49:21.487Z,1007.53
2022-09-26T00:50:21.666Z,1007.52
2022-09-26T00:51:21.828Z,1007.53
2022-09-26T00:52:21.997Z,1007.58
2022-09-26T00:53:22.152Z,1007.58
2022-09-26T00:54:22.349Z,1007.51
2022-09-26T00:55:22.501Z,1007.52
2022-09-26T00:56:22.689Z,1007.49
2022-09-26T00:57:22.879Z,1007.46
2022-09-26T00:58:23.040Z,1007.48
2022-09-26T00:59:23.190Z,1007.48
2022-09-26T01:00:23.381Z,1007.46
2022-09-26T01:01:23.639Z,1007.49
2022-09-26T01:02:23.819Z,1007.48
2022-09-26T01:03:23.881Z,1007.44
2022-09-26T01:04:24.046Z,1007.43
2022-09-26T01:05:24.202Z,1007.46
2022-09-26T01:06:24.392Z,1007.38
2022-09-26T01:07:24.562Z,1007.37
2022-09-26T01:08:24.726Z,1007.33
2022-09-26T01:09:24.873Z,1007.35
2022-09-26T01:10:25.074Z,1007.32
2022-09-26T01:11:25.231Z,1007.33
2022-09-26T01:12:25.406Z,1007.30
2022-09-26T01:13:25.566Z,1007.31
2022-09-26T01:14:25.725Z,1007.30
2022-09-26T01:15:25.884Z,1007.28
2022-09-26T01:16:26.116Z,1007.26
2022-09-26T01:17:26.245Z,1007.24
2022-09-26T01:18:26.412Z,1007.23
2022-09-26T01:19:26.568Z,1007.22
2022-09-26T01:20:26.726Z,1007.19
2022-09-26T01:21:26.888Z,1007.22
2022-09-26T01:22:27.071Z,1007.16
2022-09-26T01:23:27.241Z,1007.16
2022-09-26T01:24:27.413Z,1007.14
2022-09-26T01:25:27.586Z,1007.12
2022-09-26T01:26:27.746Z,1007.10
2022-09-26T01:27:27.910Z,1007.07
2022-09-26T01:28:28.082Z,1007.11
2022-09-26T01:29:28.251Z,1007.08
2022-09-26T01:30:28.487Z,1007.07
2022-09-26T01:31:28.649Z,1007.05
2022-09-26T01:32:28.744Z,1007.07
2022-09-26T01:33:28.966Z,1007.11
2022-09-26T01:34:29.102Z,1007.07
2022-09-26T01:35:29.266Z,1007.09
2022-09-26T01:36:29.421Z,1007.03
2022-09-26T01:37:29.612Z,1007.05
2022-09-26T01:38:29.785Z,1007.03
2022-09-26T01:39:29.945Z,1007.04
2022-09-26T01:40:30.163Z,1007.03
2022-09-26T01:41:30.314Z,1007.00
2022-09-26T01:42:30.442Z,1007.06
2022-09-26T01:43:30.600Z,1007.05
2022-09-26T01:44:30.754Z,1007.05
2022-09-26T01:45:31.017Z,1007.03
2022-09-26T01:46:31.135Z,1007.00
2022-09-26T01:47:31.295Z,1006.99
2022-09-26T01:48:31.447Z,1007.00
2022-09-26T01:49:31.644Z,1006.97
2022-09-26T01:50:31.817Z,1006.97
2022-09-26T01:51:31.967Z,1006.96
2022-09-26T01:52:32.131Z,1006.95
2022-09-26T01:53:32.288Z,1006.93
2022-09-26T01:54:32.447Z,1006.95
2022-09-26T01:55:32.623Z,1006.94
2022-09-26T01:56:32.779Z,1006.91
2022-09-26T01:57:32.937Z,1006.89
2022-09-26T01:58:33.098Z,1006.89
2022-09-26T01:59:33.264Z,1006.97
2022-09-26T02:00:33.445Z,1006.95
2022-09-26T02:01:33.614Z,1006.95
2022-09-26T02:02:33.793Z,1006.90
2022-09-26T02:03:33.935Z,1006.94
2022-09-26T02:04:34.090Z,1006.93
2022-09-26T02:05:34.303Z,1006.93
2022-09-26T02:06:34.467Z,1006.90
2022-09-26T02:07:34.621Z,1006.88
2022-09-26T02:08:34.776Z,1006.89
2022-09-26T02:09:34.965Z,1006.88
2022-09-26T02:10:35.144Z,1006.86
2022-09-26T02:11:35.304Z,1006.87
2022-09-26T02:12:35.466Z,1006.87
2022-09-26T02:13:35.630Z,1006.83
2022-09-26T02:14:35.785Z,1006.81
2022-09-26T02:15:35.979Z,1006.78
2022-09-26T02:16:36.137Z,1006.78
2022-09-26T02:17:36.322Z,1006.77
2022-09-26T02:18:36.464Z,1006.74
2022-09-26T02:19:36.675Z,1006.68
2022-09-26T02:20:36.835Z,1006.70
2022-09-26T02:21:37.005Z,1006.66
2022-09-26T02:22:37.167Z,1006.69
2022-09-26T02:23:37.336Z,1006.65
2022-09-26T02:24:37.502Z,1006.70
2022-09-26T02:25:37.666Z,1006.64
2022-09-26T02:26:37.827Z,1006.63
2022-09-26T02:27:37.991Z,1006.61
2022-09-26T02:28:38.153Z,1006.62
2022-09-26T02:29:38.312Z,1006.61
2022-09-26T02:30:38.468Z,1006.61
2022-09-26T02:31:38.714Z,1006.65
2022-09-26T02:32:38.812Z,1006.61
2022-09-26T02:33:39.013Z,1006.59
2022-09-26T02:34:39.170Z,1006.65
2022-09-26T02:35:39.331Z,1006.58
2022-09-26T02:36:39.515Z,1006.60
2022-09-26T02:37:39.661Z,1006.60
2022-09-26T02:38:39.813Z,1006.61
2022-09-26T02:39:40.000Z,1006.57
2022-09-26T02:40:40.211Z,1006.59
2022-09-26T02:41:40.381Z,1006.59
2022-09-26T02:42:40.541Z,1006.59
2022-09-26T02:43:40.694Z,1006.54
2022-09-26T02:44:40.854Z,1006.53
2022-09-26T02:45:41.141Z,1006.52
2022-09-26T02:46:41.225Z,1006.49
2022-09-26T02:47:41.388Z,1006.46
2022-09-26T02:48:41.546Z,1006.45
2022-09-26T02:49:41.769Z,1006.45
2022-09-26T02:50:41.904Z,1006.40
2022-09-26T02:51:42.067Z,1006.41
2022-09-26T02:52:42.236Z,1006.44
2022-09-26T02:53:42.402Z,1006.35
2022-09-26T02:54:42.558Z,1006.30
2022-09-26T02:55:42.751Z,1006.32
2022-09-26T02:56:42.907Z,1006.30
2022-09-26T02:57:43.079Z,1006.27
2022-09-26T02:58:43.236Z,1006.29
2022-09-26T02:59:43.428Z,1006.30
2022-09-26T03:00:43.612Z,1006.28
2022-09-26T03:01:43.869Z,1006.30
2022-09-26T03:02:43.949Z,1006.28
2022-09-26T03:03:44.157Z,1006.28
2022-09-26T03:04:44.342Z,1006.28
2022-09-26T03:05:44.460Z,1006.33
2022-09-26T03:06:44.621Z,1006.31
2022-09-26T03:07:44.842Z,1006.33
2022-09-26T03:08:44.990Z,1006.36
2022-09-26T03:09:45.151Z,1006.32
2022-09-26T03:10:45.336Z,1006.32
2022-09-26T03:11:45.481Z,1006.35
2022-09-26T03:12:45.691Z,1006.31
2022-09-26T03:13:45.854Z,1006.28
2022-09-26T03:14:46.012Z,1006.29
2022-09-26T03:15:46.170Z,1006.29
2022-09-26T03:16:46.382Z,1006.35
2022-09-26T03:17:46.527Z,1006.31
2022-09-26T03:18:46.702Z,1006.25
2022-09-26T03:19:46.856Z,1006.25
2022-09-26T03:20:47.023Z,1006.23
2022-09-26T03:21:47.177Z,1006.24
2022-09-26T03:22:47.368Z,1006.20
2022-09-26T03:23:47.525Z,1006.21
2022-09-26T03:24:47.684Z,1006.24
2022-09-26T03:25:47.844Z,1006.21
2022-09-26T03:26:48.005Z,1006.23
2022-09-26T03:27:48.176Z,1006.25
2022-09-26T03:28:48.338Z,1006.25
2022-09-26T03:29:48.502Z,1006.19
2022-09-26T03:30:48.653Z,1006.22
2022-09-26T03:31:48.921Z,1006.22
2022-09-26T03:32:49.019Z,1006.22
2022-09-26T03:33:49.193Z,1006.25
2022-09-26T03:34:49.354Z,1006.27
2022-09-26T03:35:49.519Z,1006.28
2022-09-26T03:36:49.685Z,1006.30
2022-09-26T03:37:49.840Z,1006.27
2022-09-26T03:38:50.005Z,1006.27
2022-09-26T03:39:50.166Z,1006.23
2022-09-26T03:40:50.408Z,1006.19
2022-09-26T03:41:50.481Z,1006.14
2022-09-26T03:42:50.655Z,1006.16
2022-09-26T03:43:50.813Z,1006.14
2022-09-26T03:44:50.977Z,1006.14
2022-09-26T03:45:51.212Z,1006.13
2022-09-26T03:46:51.316Z,1006.12
2022-09-26T03:47:51.473Z,1006.10
2022-09-26T03:48:51.633Z,1006.09
2022-09-26T03:49:51.794Z,1006.10
2022-09-26T03:50:51.970Z,1006.08
2022-09-26T03:51:52.143Z,1006.08
2022-09-26T03:52:52.305Z,1006.05
2022-09-26T03:53:52.464Z,1006.03
2022-09-26T03:54:52.624Z,1006.00
2022-09-26T03:55:52.788Z,1006.02
2022-09-26T03:56:52.950Z,1006.03
2022-09-26T03:57:53.113Z,1006.00
2022-09-26T03:58:53.276Z,1005.98
2022-09-26T03:59:53.440Z,1005.94
2022-09-26T04:00:53.674Z,1005.98
2022-09-26T04:01:53.853Z,1005.91
2022-09-26T04:02:53.946Z,1005.87
2022-09-26T04:03:54.106Z,1005.90
2022-09-26T04:04:54.264Z,1005.88
2022-09-26T04:05:54.419Z,1005.88
2022-09-26T04:06:54.620Z,1005.84
2022-09-26T04:07:54.769Z,1005.84
2022-09-26T04:08:54.939Z,1005.80
2022-09-26T04:09:55.101Z,1005.81
2022-09-26T04:10:55.250Z,1005.81
2022-09-26T04:11:55.463Z,1005.80
2022-09-26T04:12:55.614Z,1005.83
2022-09-26T04:13:55.801Z,1005.83
2022-09-26T04:14:55.960Z,1005.82
2022-09-26T04:15:56.220Z,1005.79
2022-09-26T04:16:56.341Z,1005.81
2022-09-26T04:17:56.500Z,1005.79
2022-09-26T04:18:56.803Z,1005.74
2022-09-26T04:19:56.834Z,1005.75
2022-09-26T04:20:56.984Z,1005.76
2022-09-26T04:21:57.196Z,1005.72
2022-09-26T04:22:57.356Z,1005.76
2022-09-26T04:23:57.534Z,1005.77
2022-09-26T04:24:57.723Z,1005.73
2022-09-26T04:25:57.881Z,1005.74
2022-09-26T04:26:58.083Z,1005.73
2022-09-26T04:27:58.235Z,1005.74
2022-09-26T04:28:58.395Z,1005.73
2022-09-26T04:29:58.585Z,1005.71
2022-09-26T04:30:58.776Z,1005.67
2022-09-26T04:31:59.043Z,1005.62
2022-09-26T04:32:59.147Z,1005.70
2022-09-26T04:33:59.332Z,1005.70
2022-09-26T04:34:59.521Z,1005.69
2022-09-26T04:35:59.708Z,1005.78
2022-09-26T04:36:59.897Z,1005.77
2022-09-26T04:38:00.069Z,1005.73
2022-09-26T04:39:00.229Z,1005.78
2022-09-26T04:40:00.421Z,1005.80
2022-09-26T04:41:00.645Z,1005.79
2022-09-26T04:42:00.753Z,1005.75
2022-09-26T04:43:00.919Z,1005.74
2022-09-26T04:44:01.114Z,1005.76
2022-09-26T04:45:01.240Z,1005.77
2022-09-26T04:46:01.521Z,1005.78
2022-09-26T04:47:01.593Z,1005.78
2022-09-26T04:48:01.802Z,1005.74
2022-09-26T04:49:02.020Z,1005.76
2022-09-26T04:50:02.191Z,1005.76
2022-09-26T04:51:02.320Z,1005.77
2022-09-26T04:52:02.522Z,1005.74
2022-09-26T04:53:02.685Z,1005.75
2022-09-26T04:54:02.843Z,1005.76
2022-09-26T04:55:03.066Z,1005.74
2022-09-26T04:56:03.186Z,1005.73
2022-09-26T04:57:03.364Z,1005.72
2022-09-26T04:58:03.522Z,1005.72
2022-09-26T04:59:03.680Z,1005.71
2022-09-26T05:00:03.840Z,1005.73
2022-09-26T05:01:04.084Z,1005.67
2022-09-26T05:02:04.203Z,1005.68
2022-09-26T05:03:04.361Z,1005.71
2022-09-26T05:04:04.517Z,1005.73
2022-09-26T05:05:04.692Z,1005.66
2022-09-26T05:06:04.858Z,1005.68
2022-09-26T05:07:05.038Z,1005.69
2022-09-26T05:08:05.237Z,1005.67
2022-09-26T05:09:05.400Z,1005.64
2022-09-26T05:10:05.577Z,1005.66
2022-09-26T05:11:05.758Z,1005.63
2022-09-26T05:12:05.947Z,1005.66
2022-09-26T05:13:06.139Z,1005.65
2022-09-26T05:14:06.299Z,1005.64
2022-09-26T05:15:06.470Z,1005.67
2022-09-26T05:16:06.685Z,1005.65
2022-09-26T05:17:06.820Z,1005.66
2022-09-26T05:18:07.020Z,1005.64
2022-09-26T05:19:07.152Z,1005.63
2022-09-26T05:20:07.334Z,1005.62
2022-09-26T05:21:07.584Z,1005.62
2022-09-26T05:22:07.672Z,1005.64
2022-09-26T05:23:07.888Z,1005.62
2022-09-26T05:24:08.013Z,1005.62
2022-09-26T05:25:08.193Z,1005.63
2022-09-26T05:26:08.373Z,1005.63
2022-09-26T05:27:08.554Z,1005.60
2022-09-26T05:28:08.758Z,1005.60
2022-09-26T05:29:09.321Z,1005.61
2022-09-26T05:30:09.084Z,1005.57
2022-09-26T05:31:09.291Z,1005.62
2022-09-26T05:32:09.444Z,1005.55
2022-09-26T05:33:09.625Z,1005.60
2022-09-26T05:34:17.087Z,1005.61
2022-09-26T05:35:10.965Z,1005.60
2022-09-26T05:36:10.126Z,1005.58
2022-09-26T05:37:10.310Z,1005.60
2022-09-26T05:38:10.526Z,1005.59
2022-09-26T05:39:10.667Z,1005.59
2022-09-26T05:40:10.942Z,1005.58
2022-09-26T05:41:11.031Z,1005.55
2022-09-26T05:42:11.198Z,1005.53
2022-09-26T05:43:11.397Z,1005.55
2022-09-26T05:44:11.538Z,1005.53
2022-09-26T05:45:11.721Z,1005.55
2022-09-26T05:46:12.017Z,1005.58
2022-09-26T05:47:12.112Z,1005.54
2022-09-26T05:48:12.250Z,1005.51
2022-09-26T05:49:12.421Z,1005.55
2022-09-26T05:50:12.571Z,1005.56
2022-09-26T05:51:12.759Z,1005.49
2022-09-26T05:52:12.933Z,1005.53
2022-09-26T05:53:13.138Z,1005.51
2022-09-26T05:54:13.272Z,1005.54
2022-09-26T05:55:13.457Z,1005.51
2022-09-26T05:56:18.321Z,1005.50
2022-09-26T05:57:14.802Z,1005.51
2022-09-26T05:58:13.973Z,1005.48
2022-09-26T05:59:14.223Z,1005.47
2022-09-26T06:00:14.303Z,1005.48
2022-09-26T06:01:14.555Z,1005.49
2022-09-26T06:02:18.626Z,1005.49
2022-09-26T06:03:15.834Z,1005.47
2022-09-26T06:04:14.997Z,1005.50
2022-09-26T06:05:15.185Z,1005.48
2022-09-26T06:06:15.341Z,1005.46
2022-09-26T06:07:15.745Z,1005.46
2022-09-26T06:08:15.666Z,1005.45
2022-09-26T06:09:15.986Z,1005.46
2022-09-26T06:10:16.006Z,1005.44
2022-09-26T06:11:16.197Z,1005.40
2022-09-26T06:12:16.367Z,1005.41
2022-09-26T06:13:16.565Z,1005.42
2022-09-26T06:14:16.717Z,1005.42
2022-09-26T06:15:16.902Z,1005.40
2022-09-26T06:16:17.126Z,1005.39
2022-09-26T06:17:17.304Z,1005.39
2022-09-26T06:18:17.458Z,1005.38
2022-09-26T06:19:22.700Z,1005.38
2022-09-26T06:20:18.817Z,1005.38
2022-09-26T06:21:18.000Z,1005.39
2022-09-26T06:22:18.214Z,1005.38
2022-09-26T06:23:18.352Z,1005.36
2022-09-26T06:24:18.519Z,1005.37
2022-09-26T06:25:18.712Z,1005.39
2022-09-26T06:26:18.860Z,1005.37
2022-09-26T06:27:19.072Z,1005.33
2022-09-26T06:28:19.214Z,1005.35
2022-09-26T06:29:19.395Z,1005.34
2022-09-26T06:30:19.582Z,1005.36
2022-09-26T06:31:19.922Z,1005.33
2022-09-26T06:32:19.965Z,1005.37
2022-09-26T06:33:20.133Z,1005.36
2022-09-26T06:34:20.314Z,1005.37
2022-09-26T06:35:20.483Z,1005.41
2022-09-26T06:36:20.914Z,1005.34
2022-09-26T06:37:20.825Z,1005.33
2022-09-26T06:38:21.005Z,1005.28
2022-09-26T06:39:21.196Z,1005.27
2022-09-26T06:40:21.446Z,1005.25
2022-09-26T06:41:21.556Z,1005.26
2022-09-26T06:42:21.728Z,1005.28
2022-09-26T06:43:21.905Z,1005.26
2022-09-26T06:44:22.089Z,1005.26
2022-09-26T06:45:22.266Z,1005.26
2022-09-26T06:46:22.506Z,1005.22
2022-09-26T06:47:22.656Z,1005.25
2022-09-26T06:48:24.672Z,1005.26
2022-09-26T06:49:22.948Z,1005.22
2022-09-26T06:50:23.150Z,1005.22
2022-09-26T06:51:23.322Z,1005.19
2022-09-26T06:52:23.509Z,1005.18
2022-09-26T06:53:23.696Z,1005.18
2022-09-26T06:54:23.922Z,1005.16
2022-09-26T06:55:24.079Z,1005.18
2022-09-26T06:56:24.319Z,1005.18
2022-09-26T06:57:24.440Z,1005.20
2022-09-26T06:58:24.602Z,1005.18
2022-09-26T06:59:24.813Z,1005.12
2022-09-26T07:00:25.089Z,1005.10
2022-09-26T07:01:25.255Z,1005.08
2022-09-26T07:02:25.337Z,1005.08
2022-09-26T07:03:25.467Z,1005.07
2022-09-26T07:04:25.668Z,1005.02
2022-09-26T07:05:25.852Z,1005.08
2022-09-26T07:06:26.022Z,1005.09
2022-09-26T07:07:26.164Z,1005.09
2022-09-26T07:08:43.707Z,1005.10
2022-09-26T07:09:27.536Z,1005.06
2022-09-26T07:10:26.669Z,1005.07
2022-09-26T07:12:09.863Z,1005.08
2022-09-26T07:12:28.036Z,1005.12
2022-09-26T07:13:27.225Z,1005.06
2022-09-26T07:14:27.407Z,1005.09
2022-09-26T07:15:27.623Z,1005.08
2022-09-26T07:16:27.871Z,1005.07
2022-09-26T07:17:27.920Z,1005.05
2022-09-26T07:18:28.106Z,1005.06
2022-09-26T07:19:28.288Z,1005.09
2022-09-26T07:20:28.486Z,1005.10
2022-09-26T07:21:28.668Z,1005.07
2022-09-26T07:22:28.868Z,1005.07
2022-09-26T07:23:29.007Z,1005.09
2022-09-26T07:24:29.199Z,1005.08
2022-09-26T07:25:29.398Z,1005.06
2022-09-26T07:26:29.589Z,1005.06
2022-09-26T07:27:29.759Z,1005.02
2022-09-26T07:28:29.920Z,1005.03
2022-09-26T07:29:30.080Z,1005.03
2022-09-26T07:30:30.250Z,1005.02
2022-09-26T07:31:30.456Z,1005.02
2022-09-26T07:32:30.632Z,1005.00
2022-09-26T07:33:30.765Z,1005.00
2022-09-26T07:34:30.950Z,1005.04
2022-09-26T07:35:31.165Z,1005.00
2022-09-26T07:36:31.322Z,1004.92
2022-09-26T07:37:31.503Z,1004.94
2022-09-26T07:38:31.703Z,1004.93
2022-09-26T07:39:31.873Z,1004.92
2022-09-26T07:40:32.161Z,1004.91
2022-09-26T07:41:32.257Z,1004.94
2022-09-26T07:42:32.476Z,1004.92
2022-09-26T07:45:34.237Z,1004.94
2022-09-26T07:46:33.121Z,1004.89
2022-09-26T07:47:33.236Z,1004.89
2022-09-26T07:48:33.416Z,1004.90
2022-09-26T07:49:33.625Z,1004.89
2022-09-26T07:50:33.787Z,1004.92
2022-09-26T07:51:33.989Z,1004.88
2022-09-26T07:52:34.157Z,1004.93
2022-09-26T07:53:34.468Z,1004.94
2022-09-26T07:54:34.492Z,1004.86
2022-09-26T07:55:34.687Z,1004.85
2022-09-26T07:56:34.885Z,1004.85
2022-09-26T07:57:35.061Z,1004.83
2022-09-26T07:58:35.239Z,1004.81
2022-09-26T07:59:35.437Z,1004.84
2022-09-26T08:00:35.611Z,1004.82
2022-09-26T08:01:35.811Z,1004.84
2022-09-26T08:02:36.252Z,1004.85
2022-09-26T08:03:36.111Z,1004.86
2022-09-26T08:04:36.296Z,1004.86
2022-09-26T08:05:36.482Z,1004.89
2022-09-26T08:06:36.681Z,1004.85
2022-09-26T08:07:36.822Z,1004.83
2022-09-26T08:08:37.012Z,1004.82
2022-09-26T08:09:37.192Z,1004.84
2022-09-26T08:10:37.378Z,1004.83
2022-09-26T08:11:37.598Z,1004.78
2022-09-26T08:12:37.743Z,1004.82
2022-09-26T08:13:37.923Z,1004.81
2022-09-26T08:14:38.114Z,1004.79
2022-09-26T08:15:38.352Z,1004.78
2022-09-26T08:16:38.548Z,1004.82
2022-09-26T08:17:38.666Z,1004.80
2022-09-26T08:18:38.846Z,1004.81
2022-09-26T08:19:39.026Z,1004.80
2022-09-26T08:20:39.213Z,1004.80
2022-09-26T08:21:39.396Z,1004.79
2022-09-26T08:22:39.538Z,1004.84
2022-09-26T08:23:39.728Z,1004.83
2022-09-26T08:24:39.927Z,1004.84
2022-09-26T08:25:40.108Z,1004.78
2022-09-26T08:26:44.196Z,1004.81
2022-09-26T08:27:40.539Z,1004.77
2022-09-26T08:28:40.628Z,1004.77
2022-09-26T08:29:40.803Z,1004.76
2022-09-26T08:30:40.989Z,1004.74
2022-09-26T08:31:41.255Z,1004.80
2022-09-26T08:32:41.350Z,1004.74
2022-09-26T08:33:41.531Z,1004.78
2022-09-26T08:34:41.681Z,1004.78
2022-09-26T08:35:41.893Z,1004.76
2022-09-26T08:36:42.042Z,1004.78
2022-09-26T08:37:42.192Z,1004.76
2022-09-26T08:38:42.394Z,1004.72
2022-09-26T08:39:42.542Z,1004.71
2022-09-26T08:40:42.750Z,1004.72
2022-09-26T08:41:42.894Z,1004.75
2022-09-26T08:42:43.083Z,1004.75
2022-09-26T08:43:43.284Z,1004.75
2022-09-26T08:44:43.443Z,1004.75
2022-09-26T08:45:47.478Z,1004.71
2022-09-26T08:46:43.832Z,1004.69
2022-09-26T08:47:43.972Z,1004.69
2022-09-26T08:48:44.165Z,1004.66
2022-09-26T08:49:44.342Z,1004.73
2022-09-26T08:50:44.526Z,1004.77
2022-09-26T08:51:44.706Z,1004.68
2022-09-26T08:52:44.886Z,1004.65
2022-09-26T08:53:45.092Z,1004.62
2022-09-26T08:54:45.227Z,1004.64
2022-09-26T08:55:45.419Z,1004.62
2022-09-26T08:56:45.600Z,1004.60
2022-09-26T08:57:45.788Z,1004.56
2022-09-26T08:58:45.989Z,1004.57
2022-09-26T08:59:46.147Z,1004.53
2022-09-26T09:00:46.350Z,1004.50
2022-09-26T09:01:46.678Z,1004.45
2022-09-26T09:02:46.791Z,1004.52
2022-09-26T09:03:46.878Z,1004.39
2022-09-26T09:04:51.538Z,1004.41
2022-09-26T09:05:48.193Z,1004.39
2022-09-26T09:06:47.361Z,1004.42
2022-09-26T09:07:47.521Z,1004.42
2022-09-26T09:08:47.706Z,1004.42
2022-09-26T09:09:47.863Z,1004.38
2022-09-26T09:10:48.016Z,1004.33
2022-09-26T09:11:51.064Z,1004.36
2022-09-26T09:12:48.373Z,1004.37
2022-09-26T09:13:48.553Z,1004.31
2022-09-26T09:15:02.329Z,1004.31
2022-09-26T09:15:49.977Z,1004.30
2022-09-26T09:16:49.063Z,1004.28
2022-09-26T09:17:49.244Z,1004.28
2022-09-26T09:18:49.390Z,1004.27
2022-09-26T09:19:49.545Z,1004.29
2022-09-26T09:20:49.707Z,1004.30
2022-09-26T09:21:49.867Z,1004.24
2022-09-26T09:22:50.044Z,1004.21
2022-09-26T09:23:50.206Z,1004.21
2022-09-26T09:24:50.368Z,1004.21
2022-09-26T09:25:50.615Z,1004.21
2022-09-26T09:27:53.647Z,1004.13
2022-09-26T09:28:51.030Z,1004.11
2022-09-26T09:29:51.198Z,1004.10
2022-09-26T09:30:51.422Z,1004.01
2022-09-26T09:31:51.546Z,1004.05
2022-09-26T09:32:51.679Z,1003.97
2022-09-26T09:33:51.844Z,1004.00
2022-09-26T09:34:54.013Z,1003.98
2022-09-26T09:35:52.191Z,1004.00
2022-09-26T09:36:52.390Z,1003.98
2022-09-26T09:37:52.543Z,1004.03
2022-09-26T09:38:52.682Z,1004.04
2022-09-26T09:39:52.862Z,1003.98
2022-09-26T09:40:53.089Z,1004.07
2022-09-26T09:41:53.253Z,1004.05
2022-09-26T09:42:53.413Z,1004.04
2022-09-26T09:43:53.593Z,1004.04
2022-09-26T09:44:53.793Z,1004.04
2022-09-26T09:45:53.935Z,1004.00
2022-09-26T09:46:54.168Z,1003.98
2022-09-26T09:47:54.282Z,1003.89
2022-09-26T09:48:54.474Z,1003.92
2022-09-26T09:49:54.647Z,1003.88
2022-09-26T09:50:54.845Z,1003.92
2022-09-26T09:51:54.987Z,1003.86
2022-09-26T09:52:55.171Z,1003.89
2022-09-26T09:53:55.376Z,1003.85
2022-09-26T09:54:55.545Z,1003.83
2022-09-26T09:55:55.748Z,1003.81
2022-09-26T09:56:55.917Z,1003.78
2022-09-26T09:57:56.058Z,1003.80
2022-09-26T09:58:56.246Z,1003.82
2022-09-26T10:00:03.394Z,1003.79
2022-09-26T10:00:56.558Z,1003.70
2022-09-26T10:01:56.738Z,1003.71
2022-09-26T10:02:56.959Z,1003.68
2022-09-26T10:03:57.088Z,1003.68
2022-09-26T10:04:57.240Z,1003.61
2022-09-26T10:05:57.421Z,1003.62
2022-09-26T10:06:57.610Z,1003.63
2022-09-26T10:07:57.792Z,1003.63
2022-09-26T10:08:57.991Z,1003.61
2022-09-26T10:09:59.162Z,1003.61
2022-09-26T10:10:58.322Z,1003.58
2022-09-26T10:11:58.510Z,1003.63
2022-09-26T10:12:58.702Z,1003.57
2022-09-26T10:13:58.853Z,1003.59
2022-09-26T10:14:59.022Z,1003.53
2022-09-26T10:15:59.259Z,1003.58
2022-09-26T10:16:59.381Z,1003.53
2022-09-26T10:18:23.065Z,1003.54
2022-09-26T10:19:03.411Z,1003.46
2022-09-26T10:19:59.875Z,1003.57
2022-09-26T10:21:00.093Z,1003.47
2022-09-26T10:22:00.255Z,1003.43
2022-09-26T10:23:00.427Z,1003.39
2022-09-26T10:24:00.566Z,1003.39
2022-09-26T10:25:00.761Z,1003.38
2022-09-26T10:26:00.945Z,1003.36
2022-09-26T10:27:01.128Z,1003.40
2022-09-26T10:28:01.328Z,1003.39
2022-09-26T10:29:01.551Z,1003.32
2022-09-26T10:30:01.726Z,1003.35
2022-09-26T10:31:01.888Z,1003.30
2022-09-26T10:32:02.019Z,1003.32
2022-09-26T10:33:02.218Z,1003.23
2022-09-26T10:34:02.406Z,1003.29
2022-09-26T10:35:02.581Z,1003.27
2022-09-26T10:36:02.776Z,1003.26
2022-09-26T10:37:02.951Z,1003.24
2022-09-26T10:38:03.149Z,1003.24
2022-09-26T10:39:03.311Z,1003.23
2022-09-26T10:40:03.453Z,1003.30
2022-09-26T10:41:03.826Z,1003.20
2022-09-26T10:42:03.826Z,1003.18
2022-09-26T10:43:04.033Z,1003.23
2022-09-26T10:44:04.174Z,1003.24
2022-09-26T10:45:04.324Z,1003.29
2022-09-26T10:46:04.505Z,1003.29
2022-09-26T10:47:04.655Z,1003.26
2022-09-26T10:48:04.855Z,1003.22
2022-09-26T10:49:05.025Z,1003.13
2022-09-26T10:50:05.209Z,1003.16
2022-09-26T10:51:05.415Z,1003.14
2022-09-26T10:52:05.566Z,1003.13
2022-09-26T10:53:05.742Z,1003.19
2022-09-26T10:54:05.954Z,1003.18
2022-09-26T10:55:06.086Z,1003.14
2022-09-26T10:56:06.259Z,1003.15
2022-09-26T10:57:06.440Z,1003.17
2022-09-26T10:58:11.392Z,1003.16
2022-09-26T10:59:07.819Z,1003.13
2022-09-26T11:00:07.003Z,1003.15
2022-09-26T11:01:07.192Z,1003.15
2022-09-26T11:02:07.427Z,1003.13
2022-09-26T11:03:07.553Z,1003.08
2022-09-26T11:04:07.755Z,1003.15
2022-09-26T11:05:07.851Z,1003.07
2022-09-26T11:06:08.037Z,1003.08
2022-09-26T11:07:08.230Z,1003.06
2022-09-26T11:08:08.403Z,1003.04
2022-09-26T11:09:08.574Z,1003.06
2022-09-26T11:10:08.748Z,1003.03
2022-09-26T11:11:08.951Z,1002.98
2022-09-26T11:12:09.095Z,1002.98
2022-09-26T11:13:09.299Z,1002.94
2022-09-26T11:14:09.506Z,1002.97
2022-09-26T11:15:09.614Z,1002.96
2022-09-26T11:16:09.841Z,1002.95
2022-09-26T11:17:10.003Z,1002.91
2022-09-26T11:18:10.189Z,1002.95
2022-09-26T11:19:10.351Z,1002.94
2022-09-26T11:20:10.508Z,1002.88
2022-09-26T11:21:23.252Z,1002.91
2022-09-26T11:22:11.871Z,1002.92
2022-09-26T11:23:10.997Z,1002.94
2022-09-26T11:24:11.188Z,1002.85
2022-09-26T11:25:11.350Z,1002.87
2022-09-26T11:26:11.506Z,1002.88
2022-09-26T11:27:11.710Z,1002.90
2022-09-26T11:28:11.855Z,1002.81
2022-09-26T11:29:12.019Z,1002.83
2022-09-26T11:30:12.204Z,1002.85
2022-09-26T11:31:12.402Z,1002.84
2022-09-26T11:32:12.552Z,1002.85
2022-09-26T11:33:12.735Z,1002.85
2022-09-26T11:34:13.018Z,1002.82
2022-09-26T11:35:13.114Z,1002.78
2022-09-26T11:36:13.268Z,1002.79
2022-09-26T11:37:13.463Z,1002.79
2022-09-26T11:38:13.604Z,1002.83
2022-09-26T11:39:13.930Z,1002.74
2022-09-26T11:40:14.077Z,1002.82
2022-09-26T11:41:14.135Z,1002.82
2022-09-26T11:42:14.316Z,1002.81
2022-09-26T11:43:14.505Z,1002.78
2022-09-26T11:44:14.728Z,1002.75
2022-09-26T11:45:14.847Z,1002.75
2022-09-26T11:46:15.131Z,1002.72
2022-09-26T11:47:15.218Z,1002.75
2022-09-26T11:48:15.397Z,1002.73
2022-09-26T11:49:15.558Z,1002.72
2022-09-26T11:50:15.731Z,1002.67
2022-09-26T11:51:15.908Z,1002.67
2022-09-26T11:52:16.087Z,1002.64
2022-09-26T11:53:16.250Z,1002.60
2022-09-26T11:54:16.421Z,1002.56
2022-09-26T11:55:16.580Z,1002.54
2022-09-26T11:56:16.741Z,1002.49
2022-09-26T11:57:16.941Z,1002.50
2022-09-26T11:58:17.110Z,1002.49
2022-09-26T11:59:17.295Z,1002.51
2022-09-26T12:00:17.470Z,1002.51
2022-09-26T12:01:17.673Z,1002.42
2022-09-26T12:02:17.915Z,1002.40
2022-09-26T12:03:18.057Z,1002.37
2022-09-26T12:04:18.405Z,1002.45
2022-09-26T12:05:18.346Z,1002.43
2022-09-26T12:06:18.535Z,1002.38
2022-09-26T12:07:18.705Z,1002.39
2022-09-26T12:08:18.896Z,1002.34
2022-09-26T12:09:19.056Z,1002.34
2022-09-26T12:10:19.248Z,1002.35